createdAt,value
2023-01-30T00:00:40.301Z,11.53
2023-01-30T00:04:40.593Z,15.5
2023-01-30T00:08:40.767Z,11.77
2023-01-30T00:12:40.553Z,14.93
2023-01-30T00:16:40.782Z,10.5
2023-01-30T00:20:40.669Z,10.47
2023-01-30T00:24:40.923Z,16.6
2023-01-30T00:28:40.651Z,11.97
2023-01-30T00:32:40.563Z,14.43
2023-01-30T00:36:40.652Z,14.43
2023-01-30T00:40:40.473Z,15.17
2023-01-30T00:44:41.156Z,9.23
2023-01-30T00:48:40.531Z,12.97
2023-01-30T00:52:40.605Z,19.13
2023-01-30T00:56:40.513Z,13.13
2023-01-30T01:00:40.113Z,12.77
2023-01-30T01:04:40.606Z,9.33
2023-01-30T01:08:40.558Z,13.7
2023-01-30T01:12:40.544Z,16.37
2023-01-30T01:16:41.261Z,13.8
2023-01-30T01:20:40.472Z,11.73
2023-01-30T01:24:40.545Z,16.4
2023-01-30T01:28:40.619Z,17.2
2023-01-30T01:32:40.434Z,9.67
2023-01-30T01:36:56.631Z,13.33
2023-01-30T01:40:40.553Z,12.97
2023-01-30T01:44:39.724Z,19.27
2023-01-30T01:48:40.722Z,13.07
2023-01-30T01:52:40.489Z,10.83
2023-01-30T01:56:40.588Z,17.93
2023-01-30T02:00:40.570Z,21.47
2023-01-30T02:04:40.466Z,14.53
2023-01-30T02:08:40.964Z,16.73
2023-01-30T02:12:40.370Z,17.93
2023-01-30T02:16:40.601Z,12.93
2023-01-30T02:20:40.706Z,15.43
2023-01-30T02:24:40.271Z,16.63
2023-01-30T02:28:40.512Z,13.8
2023-01-30T02:32:41.221Z,12.73
2023-01-30T02:36:40.478Z,15.77
2023-01-30T02:40:40.479Z,12.9
2023-01-30T02:44:40.773Z,14.67
2023-01-30T02:48:40.483Z,17.73
2023-01-30T02:52:40.649Z,14.57
2023-01-30T02:56:40.490Z,26.37
2023-01-30T03:00:40.578Z,18.27
2023-01-30T03:04:40.767Z,12.87
2023-01-30T03:08:39.949Z,17.23
2023-01-30T03:12:40.646Z,13.67
2023-01-30T03:16:40.703Z,16
2023-01-30T03:20:40.538Z,12.13
2023-01-30T03:24:40.586Z,12.47
2023-01-30T03:28:40.500Z,17.3
2023-01-30T03:32:40.324Z,17.27
2023-01-30T03:36:40.477Z,14.4
2023-01-30T03:40:40.639Z,13.3
2023-01-30T03:44:40.500Z,13.1
2023-01-30T03:48:40.574Z,18
2023-01-30T03:52:40.892Z,12.53
2023-01-30T03:56:40.485Z,13.27
2023-01-30T04:00:40.609Z,11
2023-01-30T04:04:40.512Z,15.63
2023-01-30T04:08:40.950Z,13.67
2023-01-30T04:12:40.569Z,13.5
2023-01-30T04:16:40.230Z,14.7
2023-01-30T04:20:40.945Z,16.2
2023-01-30T04:24:40.538Z,15.97
2023-01-30T04:28:40.593Z,12.9
2023-01-30T04:32:40.538Z,15.03
2023-01-30T04:36:40.239Z,16.67
2023-01-30T04:40:40.504Z,16.5
2023-01-30T04:44:40.532Z,20.83
2023-01-30T04:48:40.513Z,18.33
2023-01-30T04:52:40.491Z,15.2
2023-01-30T04:56:40.384Z,22.77
2023-01-30T05:00:40.746Z,17.9
2023-01-30T05:04:40.996Z,19.87
2023-01-30T05:08:40.623Z,18.47
2023-01-30T05:12:40.550Z,16.67
2023-01-30T05:16:39.958Z,15.73
2023-01-30T05:20:40.424Z,16.8
2023-01-30T05:24:41.271Z,19.57
2023-01-30T05:28:40.538Z,16.83
2023-01-30T05:32:40.872Z,11.1
2023-01-30T05:36:40.566Z,15.17
2023-01-30T05:40:40.620Z,15.97
2023-01-30T05:44:40.578Z,15.8
2023-01-30T05:48:40.819Z,19.77
2023-01-30T05:52:40.662Z,19.6
2023-01-30T05:56:40.467Z,17.37
2023-01-30T06:00:41.064Z,18.53
2023-01-30T06:04:40.695Z,18.57
2023-01-30T06:08:40.729Z,18.93
2023-01-30T06:12:40.716Z,14.53
2023-01-30T06:16:40.487Z,20.2
2023-01-30T06:20:40.493Z,10.03
2023-01-30T06:24:40.901Z,19.33
2023-01-30T06:28:40.811Z,19.87
2023-01-30T06:32:40.515Z,13.8
2023-01-30T06:36:40.390Z,18
2023-01-30T06:40:40.514Z,19
2023-01-30T06:44:40.571Z,20.73
2023-01-30T06:48:40.986Z,16.43
2023-01-30T06:52:40.610Z,20.8
2023-01-30T06:56:40.333Z,15.77
2023-01-30T07:00:40.767Z,17.73
2023-01-30T07:04:40.455Z,15.9
2023-01-30T07:08:40.702Z,20.6
2023-01-30T07:12:40.298Z,26.43
2023-01-30T07:16:40.449Z,25.8
2023-01-30T07:20:40.907Z,26.97
2023-01-30T07:24:40.736Z,20.73
2023-01-30T07:28:40.612Z,23.9
2023-01-30T07:32:40.823Z,18.23
2023-01-30T07:36:40.579Z,14.27
2023-01-30T07:40:40.008Z,20.27
2023-01-30T07:44:40.159Z,22.3
2023-01-30T07:48:40.878Z,22.87
2023-01-30T07:52:41.026Z,23.6
2023-01-30T07:56:40.450Z,19.03
2023-01-30T08:00:41.044Z,17.17
2023-01-30T08:04:40.815Z,22.57
2023-01-30T08:08:40.473Z,26.83
2023-01-30T08:12:40.601Z,22.47
2023-01-30T08:16:40.580Z,23
2023-01-30T08:20:40.656Z,24.8
2023-01-30T08:24:40.584Z,22.87
2023-01-30T08:28:40.798Z,14.77
2023-01-30T08:32:40.462Z,19.67
2023-01-30T08:36:40.280Z,14.23
2023-01-30T08:40:40.573Z,21.13
2023-01-30T08:44:41.083Z,19.27
2023-01-30T08:48:49.693Z,18.93
2023-01-30T08:52:40.682Z,25.77
2023-01-30T08:56:41.264Z,22.17
2023-01-30T09:00:40.285Z,17.07
2023-01-30T09:04:41.019Z,22.37
2023-01-30T09:08:40.599Z,19.97
2023-01-30T09:12:40.775Z,19.1
2023-01-30T09:16:40.604Z,26.73
2023-01-30T09:20:40.882Z,21.07
2023-01-30T09:24:40.573Z,13.67
2023-01-30T09:28:40.565Z,14.1
2023-01-30T09:32:40.394Z,9.77
2023-01-30T09:36:40.618Z,13.77
2023-01-30T09:40:40.462Z,9.97
2023-01-30T09:44:40.806Z,13.03
2023-01-30T09:48:42.614Z,12.33
2023-01-30T09:52:40.681Z,8.7
2023-01-30T09:56:40.463Z,11.37
2023-01-30T10:00:40.565Z,10.4
2023-01-30T10:04:41.956Z,8.67
2023-01-30T10:08:40.545Z,9.6
2023-01-30T10:12:41.148Z,10.17
2023-01-30T10:16:40.276Z,8.9
2023-01-30T10:20:40.052Z,10.5
2023-01-30T10:24:40.884Z,10.63
2023-01-30T10:28:40.609Z,9.6
2023-01-30T10:32:40.409Z,6.6
2023-01-30T10:36:39.386Z,10.77
2023-01-30T10:40:40.341Z,8.23
2023-01-30T10:44:40.162Z,8.9
2023-01-30T10:48:45.592Z,10
2023-01-30T10:52:40.507Z,7.73
2023-01-30T10:56:39.713Z,9.9
2023-01-30T11:00:40.775Z,7.1
2023-01-30T11:04:41.125Z,7.9
2023-01-30T11:08:40.703Z,6.1
2023-01-30T11:12:40.740Z,8.1
2023-01-30T11:16:39.467Z,7.13
2023-01-30T11:20:40.822Z,6.33
2023-01-30T11:24:40.209Z,5.53
2023-01-30T11:28:40.689Z,8.2
2023-01-30T11:32:40.721Z,5.9
2023-01-30T11:36:40.648Z,4.2
2023-01-30T11:40:39.792Z,7.63
2023-01-30T11:44:40.849Z,7.1
2023-01-30T11:49:02.898Z,6.3
2023-01-30T11:52:40.354Z,6.1
2023-01-30T11:56:40.378Z,6.27
2023-01-30T12:00:40.868Z,4.93
2023-01-30T12:04:40.587Z,8.53
2023-01-30T12:08:42.121Z,8.93
2023-01-30T12:12:40.455Z,11.63
2023-01-30T12:16:40.402Z,9.67
2023-01-30T12:20:39.955Z,6.7
2023-01-30T12:24:40.749Z,8.3
2023-01-30T12:28:40.456Z,5.7
2023-01-30T12:32:40.496Z,6.67
2023-01-30T12:36:40.629Z,5.17
2023-01-30T12:40:40.000Z,16.27
2023-01-30T12:44:41.234Z,3.9
2023-01-30T12:48:48.360Z,8.2
2023-01-30T12:52:40.521Z,6.13
2023-01-30T12:56:39.536Z,4.2
2023-01-30T13:00:40.688Z,6.43
2023-01-30T13:04:56.546Z,8
2023-01-30T13:08:40.523Z,5.43
2023-01-30T13:12:41.079Z,2.8
2023-01-30T13:16:40.588Z,6.07
2023-01-30T13:20:41.135Z,4.73
2023-01-30T13:24:40.852Z,3.47
2023-01-30T13:28:40.430Z,5.77
2023-01-30T13:32:39.413Z,2.8
2023-01-30T13:36:40.504Z,2.07
2023-01-30T13:40:39.815Z,5.47
2023-01-30T13:44:40.848Z,11.2
2023-01-30T13:48:40.677Z,6.57
2023-01-30T13:52:40.467Z,3.03
2023-01-30T13:56:42.554Z,7.27
2023-01-30T14:00:41.252Z,9.03
2023-01-30T14:04:40.593Z,5.5
2023-01-30T14:08:40.492Z,7.4
2023-01-30T14:12:39.284Z,4.57
2023-01-30T14:16:40.621Z,7.3
2023-01-30T14:20:40.651Z,8.83
2023-01-30T14:24:40.020Z,5.7
2023-01-30T14:28:40.529Z,4.57
2023-01-30T14:32:40.929Z,6.63
2023-01-30T14:36:39.469Z,9.87
2023-01-30T14:40:40.754Z,6.47
2023-01-30T14:44:40.299Z,5.37
2023-01-30T14:48:41.173Z,4.67
2023-01-30T14:52:41.252Z,5.67
2023-01-30T14:56:39.354Z,5
2023-01-30T15:00:41.416Z,9.67
2023-01-30T15:04:40.291Z,5.33
2023-01-30T15:08:41.204Z,6.97
2023-01-30T15:12:40.360Z,14.87
2023-01-30T15:16:40.727Z,6.43
2023-01-30T15:20:40.807Z,5.8
2023-01-30T15:24:40.460Z,9.73
2023-01-30T15:28:40.492Z,15.63
2023-01-30T15:32:40.728Z,5.5
2023-01-30T15:36:40.577Z,7.2
2023-01-30T15:40:39.738Z,2.73
2023-01-30T15:44:40.517Z,3.47
2023-01-30T15:48:40.477Z,3.33
2023-01-30T15:52:41.091Z,6.6
2023-01-30T15:56:41.205Z,3.23
2023-01-30T16:00:40.449Z,5.93
2023-01-30T16:04:40.221Z,5.43
2023-01-30T16:08:40.981Z,4.33
2023-01-30T16:12:41.263Z,4.3
2023-01-30T16:16:41.196Z,2.73
2023-01-30T16:20:43.695Z,4.87
2023-01-30T16:24:40.150Z,11.1
2023-01-30T16:28:40.423Z,4.33
2023-01-30T16:32:39.727Z,8.87
2023-01-30T16:36:40.600Z,2.3
2023-01-30T16:40:40.581Z,4.73
2023-01-30T16:44:40.179Z,12.5
2023-01-30T16:48:40.468Z,6.67
2023-01-30T16:52:40.272Z,11.93
2023-01-30T16:56:40.577Z,14.2
2023-01-30T17:00:40.708Z,9.33
2023-01-30T17:04:40.271Z,8.5
2023-01-30T17:08:40.462Z,6.6
2023-01-30T17:12:40.466Z,9.73
2023-01-30T17:16:40.717Z,11.47
2023-01-30T17:20:39.832Z,4.13
2023-01-30T17:24:40.581Z,9.3
2023-01-30T17:28:40.503Z,9.93
2023-01-30T17:32:41.099Z,10.47
2023-01-30T17:36:40.478Z,8.33
2023-01-30T17:40:40.569Z,8.07
2023-01-30T17:44:40.207Z,3.23
2023-01-30T17:48:40.994Z,4.73
2023-01-30T17:52:40.587Z,4.17
2023-01-30T17:56:41.263Z,6.03
2023-01-30T18:00:40.623Z,6.33
2023-01-30T18:04:40.657Z,2.87
2023-01-30T18:08:40.548Z,12.17
2023-01-30T18:12:40.474Z,8.43
2023-01-30T18:16:40.506Z,10.47
2023-01-30T18:20:40.441Z,4.8
2023-01-30T18:24:40.688Z,3.07
2023-01-30T18:28:40.434Z,10.87
2023-01-30T18:32:51.743Z,6.97
2023-01-30T18:36:40.676Z,6.53
2023-01-30T18:40:40.295Z,10.3
2023-01-30T18:44:40.232Z,2.83
2023-01-30T18:48:40.520Z,10.4
2023-01-30T18:52:40.929Z,22.5
2023-01-30T18:56:40.662Z,7.23
2023-01-30T19:00:40.998Z,7.17
2023-01-30T19:04:40.802Z,5
2023-01-30T19:08:40.881Z,14.47
2023-01-30T19:12:42.270Z,12.13
2023-01-30T19:16:40.545Z,24.3
2023-01-30T19:20:40.496Z,8.1
2023-01-30T19:24:40.376Z,13.13
2023-01-30T19:28:41.280Z,5.63
2023-01-30T19:32:40.611Z,14.13
2023-01-30T19:36:40.445Z,7.83
2023-01-30T19:40:40.564Z,5.6
2023-01-30T19:44:40.411Z,11.97
2023-01-30T19:48:40.502Z,11.97
2023-01-30T19:52:40.259Z,12.57
2023-01-30T19:56:40.615Z,5.9
2023-01-30T20:00:39.713Z,9.03
2023-01-30T20:04:40.739Z,19.6
2023-01-30T20:08:40.784Z,9.1
2023-01-30T20:12:40.573Z,10.97
2023-01-30T20:16:40.650Z,12.83
2023-01-30T20:20:40.591Z,12.33
2023-01-30T20:24:40.479Z,11.77
2023-01-30T20:28:40.662Z,17.1
2023-01-30T20:32:40.976Z,8.23
2023-01-30T20:36:40.587Z,13.6
2023-01-30T20:40:40.522Z,11
2023-01-30T20:44:40.603Z,22.33
2023-01-30T20:48:39.574Z,13.77
2023-01-30T20:52:40.791Z,16.63
2023-01-30T20:56:40.330Z,20.2
2023-01-30T21:00:40.515Z,15.83
2023-01-30T21:04:40.502Z,11.53
2023-01-30T21:08:41.041Z,23.07
2023-01-30T21:12:40.493Z,21.57
2023-01-30T21:16:40.741Z,14.23
2023-01-30T21:20:40.474Z,16.47
2023-01-30T21:24:40.749Z,13.33
2023-01-30T21:28:40.491Z,13.6
2023-01-30T21:32:40.599Z,9.87
2023-01-30T21:36:40.544Z,12.27
2023-01-30T21:40:40.703Z,14.17
2023-01-30T21:44:40.540Z,13.3
2023-01-30T21:48:39.407Z,10.6
2023-01-30T21:52:40.860Z,16.8
2023-01-30T21:56:40.343Z,10.97
2023-01-30T22:00:41.214Z,21.93
2023-01-30T22:04:40.433Z,7.47
2023-01-30T22:08:40.546Z,5.57
2023-01-30T22:12:40.604Z,15.47
2023-01-30T22:16:40.570Z,10.03
2023-01-30T22:20:40.593Z,8.87
2023-01-30T22:24:40.587Z,17.77
2023-01-30T22:28:40.733Z,13.43
2023-01-30T22:32:41.175Z,8.73
2023-01-30T22:36:40.515Z,9.47
2023-01-30T22:40:41.029Z,5.6
2023-01-30T22:44:40.476Z,11.63
2023-01-30T22:48:41.305Z,8.03
2023-01-30T22:52:40.599Z,5.57
2023-01-30T22:56:40.866Z,9.13
2023-01-30T23:00:41.180Z,4.33
2023-01-30T23:04:40.182Z,7.73
2023-01-30T23:08:40.468Z,6.3
2023-01-30T23:12:41.276Z,4.93
2023-01-30T23:16:40.510Z,14.73
2023-01-30T23:20:40.331Z,11.17
2023-01-30T23:24:40.792Z,7
2023-01-30T23:28:40.380Z,13.87
2023-01-30T23:32:41.082Z,8.33
2023-01-30T23:36:40.250Z,11.27
2023-01-30T23:40:40.470Z,9.23
2023-01-30T23:44:40.470Z,7.93
2023-01-30T23:48:40.796Z,10.8
2023-01-30T23:52:40.491Z,9.13
2023-01-30T23:56:39.944Z,7.7
